createdAt,value
2023-07-03T00:00:54.860Z,9.63
2023-07-03T00:03:23.844Z,8.35
2023-07-03T00:05:52.763Z,10.40
2023-07-03T00:08:21.754Z,13.05
2023-07-03T00:10:50.573Z,9.98
2023-07-03T00:13:19.224Z,7.88
2023-07-03T00:15:49.453Z,9.13
2023-07-03T00:18:18.664Z,8.73
2023-07-03T00:20:48.215Z,12.85
2023-07-03T00:23:17.119Z,9.90
2023-07-03T00:25:45.885Z,7.35
2023-07-03T00:28:14.683Z,8.23
2023-07-03T00:30:43.355Z,10.30
2023-07-03T00:33:13.676Z,7.97
2023-07-03T00:38:11.189Z,11.10
2023-07-03T00:40:39.878Z,8.40
2023-07-03T00:43:08.891Z,11.07
2023-07-03T00:45:39.312Z,10.32
2023-07-03T00:50:38.452Z,9.15
2023-07-03T00:53:08.400Z,7.88
2023-07-03T00:55:40.256Z,13.63
2023-07-03T00:58:09.070Z,8.80
2023-07-03T01:00:45.494Z,13.35
2023-07-03T01:03:22.865Z,7.15
2023-07-03T01:05:57.244Z,8.18
2023-07-03T01:08:28.005Z,10.30
2023-07-03T01:10:57.741Z,10.50
2023-07-03T01:13:30.513Z,12.15
2023-07-03T01:16:00.507Z,11.57
2023-07-03T01:18:30.263Z,8.10
2023-07-03T01:21:06.482Z,11.57
2023-07-03T01:23:42.210Z,13.13
2023-07-03T01:26:13.522Z,10.03
2023-07-03T01:28:44.318Z,10.10
2023-07-03T01:31:16.419Z,6.30
2023-07-03T01:33:46.509Z,12.30
2023-07-03T01:36:17.360Z,9.93
2023-07-03T01:38:48.048Z,13.67
2023-07-03T01:41:19.410Z,7.17
2023-07-03T01:43:49.419Z,8.33
2023-07-03T01:46:18.853Z,10.02
2023-07-03T01:48:47.623Z,8.82
2023-07-03T01:51:22.990Z,9.40
2023-07-03T01:53:58.742Z,7.97
2023-07-03T01:56:33.883Z,6.57
2023-07-03T01:59:08.525Z,9.80
2023-07-03T02:01:44.912Z,13.90
2023-07-03T02:04:20.935Z,11.10
2023-07-03T02:06:50.534Z,8.50
2023-07-03T02:09:19.476Z,9.73
2023-07-03T02:11:50.560Z,10.87
2023-07-03T02:14:19.396Z,10.60
2023-07-03T02:16:49.010Z,8.03
2023-07-03T02:19:18.240Z,7.63
2023-07-03T02:21:47.090Z,10.03
2023-07-03T02:24:16.057Z,8.40
2023-07-03T02:26:45.144Z,7.93
2023-07-03T02:29:15.301Z,9.67
2023-07-03T02:31:44.277Z,12.52
2023-07-03T02:34:13.020Z,5.63
2023-07-03T02:36:42.447Z,7.80
2023-07-03T02:39:11.975Z,8.80
2023-07-03T02:41:40.693Z,8.18
2023-07-03T02:44:09.322Z,12.57
2023-07-03T02:46:40.601Z,9.27
2023-07-03T02:49:09.318Z,6.57
2023-07-03T02:51:38.033Z,8.53
2023-07-03T02:54:07.677Z,10.87
2023-07-03T02:56:36.386Z,5.85
2023-07-03T02:59:05.050Z,7.33
2023-07-03T03:01:33.824Z,8.67
2023-07-03T03:04:04.211Z,7.27
2023-07-03T03:09:01.252Z,5.23
2023-07-03T03:11:30.207Z,8.27
2023-07-03T03:13:58.889Z,6.20
2023-07-03T03:16:27.901Z,7.57
2023-07-03T03:18:56.818Z,8.47
2023-07-03T03:21:26.999Z,7.47
2023-07-03T03:23:55.834Z,7.85
2023-07-03T03:26:24.889Z,7.00
2023-07-03T03:28:53.828Z,7.60
2023-07-03T03:31:22.624Z,8.87
2023-07-03T03:33:51.344Z,7.07
2023-07-03T03:36:20.110Z,9.82
2023-07-03T03:38:50.513Z,9.30
2023-07-03T03:43:48.964Z,8.50
2023-07-03T03:46:17.725Z,9.57
2023-07-03T03:48:47.687Z,7.25
2023-07-03T03:51:16.588Z,9.77
2023-07-03T03:53:45.301Z,8.05
2023-07-03T03:56:15.879Z,5.55
2023-07-03T03:58:44.627Z,8.48
2023-07-03T04:01:13.702Z,11.85
2023-07-03T04:03:43.527Z,5.55
2023-07-03T04:06:14.391Z,8.30
2023-07-03T04:08:43.460Z,7.78
2023-07-03T04:11:12.709Z,5.82
2023-07-03T04:13:43.161Z,6.63
2023-07-03T04:16:12.788Z,7.57
2023-07-03T04:18:42.075Z,5.95
2023-07-03T04:21:10.880Z,4.32
2023-07-03T04:23:39.557Z,7.07
2023-07-03T04:26:08.922Z,4.75
2023-07-03T04:28:37.679Z,7.53
2023-07-03T04:31:08.207Z,5.82
2023-07-03T04:33:37.021Z,4.50
2023-07-03T04:36:06.052Z,4.45
2023-07-03T04:38:35.018Z,8.45
2023-07-03T04:41:05.361Z,4.88
2023-07-03T04:43:34.096Z,6.18
2023-07-03T04:46:05.102Z,4.57
2023-07-03T04:48:35.504Z,5.63
2023-07-03T04:51:05.225Z,3.85
2023-07-03T04:53:43.599Z,6.13
2023-07-03T04:56:13.197Z,7.93
2023-07-03T04:58:42.452Z,3.67
2023-07-03T05:01:13.677Z,6.35
2023-07-03T05:03:43.866Z,3.75
2023-07-03T05:06:13.302Z,4.35
2023-07-03T05:08:42.280Z,5.17
2023-07-03T05:11:10.962Z,3.63
2023-07-03T05:13:39.587Z,3.47
2023-07-03T05:16:08.357Z,4.53
2023-07-03T05:18:37.105Z,5.20
2023-07-03T05:21:07.793Z,3.63
2023-07-03T05:23:36.641Z,5.35
2023-07-03T05:26:05.428Z,5.05
2023-07-03T05:28:34.895Z,4.03
2023-07-03T05:31:03.713Z,6.37
2023-07-03T05:33:33.495Z,4.25
2023-07-03T05:36:04.241Z,3.35
2023-07-03T05:38:34.930Z,4.68
2023-07-03T05:41:03.633Z,4.10
2023-07-03T05:43:32.483Z,5.95
2023-07-03T05:46:01.352Z,4.32
2023-07-03T05:48:30.040Z,4.20
2023-07-03T05:50:58.773Z,4.43
2023-07-03T05:53:27.381Z,3.28
2023-07-03T05:55:59.045Z,5.22
2023-07-03T05:58:29.564Z,4.93
2023-07-03T06:01:00.568Z,5.82
2023-07-03T06:03:30.259Z,5.38
2023-07-03T06:05:59.227Z,2.83
2023-07-03T06:08:28.132Z,6.07
2023-07-03T06:10:58.412Z,4.00
2023-07-03T06:13:27.122Z,3.70
2023-07-03T06:15:55.922Z,3.63
2023-07-03T06:18:24.680Z,4.63
2023-07-03T06:20:53.369Z,3.67
2023-07-03T06:23:22.000Z,4.85
2023-07-03T06:25:51.397Z,3.15
2023-07-03T06:28:21.862Z,2.92
2023-07-03T06:30:51.794Z,8.60
2023-07-03T06:33:20.701Z,3.50
2023-07-03T06:35:52.302Z,5.03
2023-07-03T06:38:21.441Z,4.75
2023-07-03T06:40:58.287Z,5.13
2023-07-03T06:43:28.886Z,4.20
2023-07-03T06:45:58.697Z,3.78
2023-07-03T06:48:30.678Z,6.70
2023-07-03T06:51:07.098Z,9.53
2023-07-03T06:53:35.988Z,6.97
2023-07-03T06:56:05.701Z,5.57
2023-07-03T06:58:36.610Z,5.00
2023-07-03T07:01:09.360Z,5.40
2023-07-03T07:03:38.347Z,8.30
2023-07-03T07:06:12.598Z,4.07
2023-07-03T07:08:41.675Z,7.17
2023-07-03T07:11:12.022Z,7.03
2023-07-03T07:16:16.914Z,4.90
2023-07-03T07:18:48.055Z,14.77
2023-07-03T07:21:17.263Z,5.23
2023-07-03T07:23:48.561Z,2.72
2023-07-03T07:26:17.414Z,5.05
2023-07-03T07:28:47.541Z,3.60
2023-07-03T07:31:21.458Z,3.08
2023-07-03T07:33:50.608Z,4.73
2023-07-03T07:36:21.581Z,4.93
2023-07-03T07:38:53.043Z,3.07
2023-07-03T07:41:24.063Z,5.75
2023-07-03T07:43:54.867Z,3.67
2023-07-03T07:46:26.804Z,5.28
2023-07-03T07:48:55.583Z,3.47
2023-07-03T07:51:24.462Z,3.55
2023-07-03T07:53:53.767Z,5.78
2023-07-03T07:56:23.196Z,5.10
2023-07-03T07:58:51.941Z,4.43
2023-07-03T08:01:23.218Z,2.65
2023-07-03T08:03:52.622Z,5.80
2023-07-03T08:06:21.558Z,3.60
2023-07-03T08:08:51.764Z,2.78
2023-07-03T08:11:20.601Z,3.28
2023-07-03T08:13:49.322Z,4.93
2023-07-03T08:16:19.045Z,4.07
2023-07-03T08:18:50.054Z,3.90
2023-07-03T08:21:19.067Z,6.43
2023-07-03T08:23:47.896Z,4.00
2023-07-03T08:26:21.056Z,4.05
2023-07-03T08:28:50.384Z,3.50
2023-07-03T08:31:19.865Z,3.28
2023-07-03T08:33:50.152Z,2.10
2023-07-03T08:38:50.882Z,3.13
2023-07-03T08:41:21.135Z,3.03
2023-07-03T08:43:56.321Z,3.38
2023-07-03T08:46:27.903Z,5.65
2023-07-03T08:49:05.480Z,4.60
2023-07-03T08:51:38.530Z,3.55
2023-07-03T08:54:15.385Z,4.45
2023-07-03T08:56:45.076Z,5.13
2023-07-03T08:59:13.765Z,6.40
2023-07-03T09:01:53.972Z,10.57
2023-07-03T09:04:41.651Z,5.15
2023-07-03T09:07:16.355Z,8.30
2023-07-03T09:09:51.609Z,6.80
2023-07-03T09:12:25.541Z,7.23
2023-07-03T09:15:02.242Z,9.07
2023-07-03T09:17:32.908Z,7.63
2023-07-03T09:20:05.551Z,6.95
2023-07-03T09:22:41.855Z,4.63
2023-07-03T09:25:14.218Z,6.70
2023-07-03T09:27:46.766Z,6.20
2023-07-03T09:30:18.460Z,7.97
2023-07-03T09:32:47.298Z,7.23
2023-07-03T09:35:18.918Z,5.50
2023-07-03T09:37:51.538Z,6.57
2023-07-03T09:40:24.951Z,9.73
2023-07-03T09:42:53.903Z,6.25
2023-07-03T09:45:24.526Z,5.97
2023-07-03T09:47:57.417Z,7.47
2023-07-03T09:50:36.180Z,5.38
2023-07-03T09:53:09.809Z,4.93
2023-07-03T09:55:39.343Z,5.45
2023-07-03T09:58:15.761Z,6.83
2023-07-03T10:00:52.707Z,4.72
2023-07-03T10:08:31.717Z,8.35
2023-07-03T10:13:41.796Z,4.47
2023-07-03T10:16:11.951Z,4.60
2023-07-03T10:18:46.245Z,2.95
2023-07-03T10:21:19.858Z,8.30
2023-07-03T10:23:50.130Z,5.47
2023-07-03T10:26:25.566Z,2.30
2023-07-03T10:29:00.191Z,7.90
2023-07-03T10:31:35.217Z,8.68
2023-07-03T10:34:12.380Z,4.78
2023-07-03T10:36:46.092Z,4.10
2023-07-03T10:39:19.218Z,4.22
2023-07-03T10:41:52.463Z,5.07
2023-07-03T10:44:26.020Z,3.97
2023-07-03T10:47:01.104Z,4.57
2023-07-03T10:49:33.077Z,3.63
2023-07-03T10:52:14.141Z,3.65
2023-07-03T10:54:52.454Z,3.92
2023-07-03T10:57:31.206Z,5.03
2023-07-03T11:00:08.153Z,4.13
2023-07-03T11:02:44.799Z,5.40
2023-07-03T11:05:23.065Z,2.65
2023-07-03T11:08:02.558Z,2.13
2023-07-03T11:10:39.062Z,2.40
2023-07-03T11:13:17.468Z,2.03
2023-07-03T11:15:53.693Z,2.65
2023-07-03T11:24:00.733Z,4.22
2023-07-03T11:29:09.702Z,2.22
2023-07-03T11:31:41.120Z,3.83
2023-07-03T11:44:36.250Z,2.25
2023-07-03T11:47:09.258Z,1.27
2023-07-03T11:49:40.890Z,1.58
2023-07-03T11:52:14.720Z,2.35
2023-07-03T11:54:45.705Z,4.88
2023-07-03T11:57:31.964Z,1.92
2023-07-03T12:00:17.170Z,1.27
2023-07-03T12:02:54.594Z,1.45
2023-07-03T12:05:55.008Z,4.20
2023-07-03T12:08:43.866Z,3.10
2023-07-03T12:11:16.298Z,2.00
2023-07-03T12:13:56.505Z,3.20
2023-07-03T12:16:36.723Z,2.33
2023-07-03T12:19:11.026Z,16.02
2023-07-03T12:21:43.966Z,2.88
2023-07-03T12:24:22.908Z,2.70
2023-07-03T12:27:04.890Z,2.42
2023-07-03T12:29:36.371Z,2.75
2023-07-03T12:32:09.141Z,2.25
2023-07-03T12:34:39.740Z,3.58
2023-07-03T12:37:12.542Z,3.47
2023-07-03T12:39:41.341Z,2.00
2023-07-03T12:42:17.979Z,4.28
2023-07-03T12:44:46.882Z,3.38
2023-07-03T12:47:19.385Z,1.08
2023-07-03T12:50:00.448Z,2.15
2023-07-03T12:52:32.447Z,4.25
2023-07-03T12:55:14.041Z,3.10
2023-07-03T12:57:46.509Z,4.32
2023-07-03T13:00:26.172Z,4.28
2023-07-03T13:02:59.734Z,2.60
2023-07-03T13:05:29.301Z,3.03
2023-07-03T13:07:58.949Z,3.40
2023-07-03T13:10:28.104Z,2.38
2023-07-03T13:13:13.097Z,3.00
2023-07-03T13:15:43.589Z,2.85
2023-07-03T13:20:57.919Z,5.35
2023-07-03T13:23:31.129Z,2.60
2023-07-03T13:26:01.500Z,3.17
2023-07-03T13:31:13.113Z,3.65
2023-07-03T13:33:44.140Z,1.67
2023-07-03T13:36:24.514Z,5.68
2023-07-03T13:41:32.224Z,1.63
2023-07-03T13:44:04.087Z,2.35
2023-07-03T13:46:34.712Z,3.95
2023-07-03T13:49:04.190Z,5.72
2023-07-03T13:51:33.474Z,5.18
2023-07-03T13:54:11.329Z,4.53
2023-07-03T13:56:41.527Z,4.18
2023-07-03T13:59:12.946Z,5.82
2023-07-03T14:01:43.997Z,3.13
2023-07-03T14:04:14.067Z,5.90
2023-07-03T14:06:43.250Z,5.32
2023-07-03T14:09:12.270Z,4.05
2023-07-03T14:11:42.238Z,4.80
2023-07-03T14:14:13.578Z,4.30
2023-07-03T14:16:42.333Z,4.05
2023-07-03T14:19:11.198Z,3.90
2023-07-03T14:21:40.709Z,3.83
2023-07-03T14:24:10.777Z,3.70
2023-07-03T14:26:39.634Z,4.65
2023-07-03T14:29:08.801Z,3.92
2023-07-03T14:31:38.970Z,4.05
2023-07-03T14:34:08.073Z,4.00
2023-07-03T14:36:36.701Z,5.15
2023-07-03T14:39:05.592Z,5.00
2023-07-03T14:41:34.434Z,4.40
2023-07-03T14:44:03.152Z,5.40
2023-07-03T14:46:31.812Z,5.40
2023-07-03T14:49:02.059Z,5.95
2023-07-03T14:51:30.884Z,5.30
2023-07-03T14:53:59.578Z,6.55
2023-07-03T14:56:28.220Z,7.10
2023-07-03T14:58:56.944Z,4.68
2023-07-03T15:01:28.385Z,5.68
2023-07-03T15:03:57.358Z,4.82
2023-07-03T15:06:27.622Z,5.10
2023-07-03T15:08:56.737Z,4.13
2023-07-03T15:11:25.439Z,3.95
2023-07-03T15:13:54.270Z,4.85
2023-07-03T15:16:29.191Z,3.05
2023-07-03T15:19:02.185Z,4.45
2023-07-03T15:21:33.062Z,5.18
2023-07-03T15:24:01.778Z,4.65
2023-07-03T15:26:30.445Z,3.08
2023-07-03T15:28:59.183Z,4.97
2023-07-03T15:31:28.402Z,3.03
2023-07-03T15:33:57.629Z,3.47
2023-07-03T15:36:26.472Z,1.70
2023-07-03T15:38:56.656Z,2.78
2023-07-03T15:41:26.570Z,1.85
2023-07-03T15:43:55.419Z,1.77
2023-07-03T15:46:24.699Z,1.50
2023-07-03T15:48:53.702Z,3.30
2023-07-03T15:51:22.528Z,2.72
2023-07-03T15:53:51.364Z,3.92
2023-07-03T15:56:22.048Z,3.75
2023-07-03T15:58:54.707Z,2.88
2023-07-03T16:01:25.535Z,4.32
2023-07-03T16:03:55.780Z,2.10
2023-07-03T16:06:26.293Z,2.17
2023-07-03T16:08:58.136Z,3.17
2023-07-03T16:11:28.998Z,2.65
2023-07-03T16:14:00.519Z,2.00
2023-07-03T16:16:29.946Z,1.38
2023-07-03T16:19:00.082Z,3.33
2023-07-03T16:21:31.481Z,4.50
2023-07-03T16:24:00.856Z,3.38
2023-07-03T16:26:31.450Z,2.72
2023-07-03T16:29:00.770Z,1.60
2023-07-03T16:31:31.506Z,1.88
2023-07-03T16:34:02.802Z,1.35
2023-07-03T16:36:33.573Z,2.75
2023-07-03T16:39:04.865Z,1.48
2023-07-03T16:41:37.389Z,1.77
2023-07-03T16:44:06.511Z,1.90
2023-07-03T16:46:37.117Z,1.75
2023-07-03T16:49:08.622Z,1.38
2023-07-03T16:51:37.399Z,1.67
2023-07-03T16:54:07.392Z,2.55
2023-07-03T16:56:37.580Z,1.95
2023-07-03T16:59:06.553Z,1.35
2023-07-03T17:01:35.281Z,0.77
2023-07-03T17:04:04.149Z,1.02
2023-07-03T17:06:36.403Z,3.67
2023-07-03T17:09:06.040Z,2.70
2023-07-03T17:11:34.890Z,2.05
2023-07-03T17:14:05.820Z,2.78
2023-07-03T17:16:34.554Z,1.42
2023-07-03T17:19:03.490Z,3.55
2023-07-03T17:21:32.780Z,3.72
2023-07-03T17:24:03.521Z,2.28
2023-07-03T17:26:34.340Z,3.05
2023-07-03T17:29:05.686Z,2.05
2023-07-03T17:31:34.772Z,2.25
2023-07-03T17:34:05.162Z,3.63
2023-07-03T17:36:34.114Z,3.63
2023-07-03T17:39:03.139Z,2.13
2023-07-03T17:41:31.846Z,2.67
2023-07-03T17:44:00.762Z,7.57
2023-07-03T17:46:31.432Z,3.60
2023-07-03T17:49:00.497Z,2.67
2023-07-03T17:51:35.590Z,6.40
2023-07-03T17:54:05.134Z,2.22
2023-07-03T17:56:34.201Z,3.28
2023-07-03T17:59:03.001Z,7.70
2023-07-03T18:01:33.312Z,4.55
2023-07-03T18:06:32.284Z,3.08
2023-07-03T18:09:01.201Z,5.13
2023-07-03T18:11:30.192Z,3.75
2023-07-03T18:13:59.101Z,6.38
2023-07-03T18:16:27.975Z,6.65
2023-07-03T18:18:58.299Z,6.20
2023-07-03T18:23:55.835Z,4.60
2023-07-03T18:26:24.579Z,6.10
2023-07-03T18:28:53.337Z,9.10
2023-07-03T18:31:26.191Z,8.60
2023-07-03T18:33:55.793Z,6.97
2023-07-03T18:36:26.597Z,8.57
2023-07-03T18:38:57.032Z,7.97
2023-07-03T18:43:55.476Z,9.77
2023-07-03T18:46:24.689Z,9.07
2023-07-03T18:48:53.601Z,13.75
2023-07-03T18:51:24.272Z,10.75
2023-07-03T18:53:55.500Z,12.73
2023-07-03T18:56:24.162Z,14.27
2023-07-03T18:58:53.180Z,8.88
2023-07-03T19:01:22.464Z,9.70
2023-07-03T19:03:51.448Z,8.17
2023-07-03T19:06:23.247Z,11.13
2023-07-03T19:08:51.921Z,8.65
2023-07-03T19:11:22.250Z,12.97
2023-07-03T19:16:19.670Z,10.90
2023-07-03T19:18:49.715Z,8.90
2023-07-03T19:21:19.314Z,10.82
2023-07-03T19:23:48.121Z,7.15
2023-07-03T19:26:16.882Z,9.88
2023-07-03T19:28:50.715Z,7.90
2023-07-03T19:31:19.918Z,8.88
2023-07-03T19:33:48.670Z,11.10
2023-07-03T19:36:19.284Z,7.93
2023-07-03T19:38:48.094Z,11.40
2023-07-03T19:41:17.697Z,7.47
2023-07-03T19:43:48.054Z,8.15
2023-07-03T19:48:45.432Z,12.20
2023-07-03T19:51:14.583Z,9.60
2023-07-03T19:53:43.317Z,8.98
2023-07-03T19:56:16.265Z,10.20
2023-07-03T19:58:45.428Z,7.85
2023-07-03T20:01:16.491Z,13.25
2023-07-03T20:03:45.926Z,12.60
2023-07-03T20:06:18.868Z,7.25
2023-07-03T20:08:47.622Z,9.65
2023-07-03T20:11:16.522Z,11.57
2023-07-03T20:13:45.515Z,7.32
2023-07-03T20:16:17.134Z,8.40
2023-07-03T20:18:50.828Z,10.87
2023-07-03T20:21:19.808Z,13.25
2023-07-03T20:23:49.078Z,7.72
2023-07-03T20:26:18.485Z,10.38
2023-07-03T20:28:47.348Z,10.60
2023-07-03T20:31:17.793Z,11.48
2023-07-03T20:33:48.176Z,10.73
2023-07-03T20:38:46.408Z,8.65
2023-07-03T20:41:17.340Z,5.90
2023-07-03T20:43:46.721Z,11.00
2023-07-03T20:46:22.489Z,7.50
2023-07-03T20:48:56.385Z,13.40
2023-07-03T20:51:28.280Z,6.50
2023-07-03T20:54:04.985Z,8.03
2023-07-03T20:56:39.384Z,12.10
2023-07-03T20:59:10.668Z,10.25
2023-07-03T21:01:41.052Z,7.90
2023-07-03T21:06:39.912Z,17.00
2023-07-03T21:09:09.120Z,10.30
2023-07-03T21:11:40.681Z,12.23
2023-07-03T21:14:09.577Z,9.97
2023-07-03T21:16:39.955Z,6.47
2023-07-03T21:21:38.396Z,12.07
2023-07-03T21:24:10.220Z,10.20
2023-07-03T21:26:39.488Z,11.52
2023-07-03T21:29:08.353Z,13.27
2023-07-03T21:31:40.304Z,8.23
2023-07-03T21:34:09.041Z,9.40
2023-07-03T21:36:37.790Z,8.77
2023-07-03T21:39:06.832Z,14.97
2023-07-03T21:41:37.553Z,10.63
2023-07-03T21:44:13.501Z,11.98
2023-07-03T21:46:44.458Z,11.43
2023-07-03T21:49:14.463Z,8.80
2023-07-03T21:51:43.624Z,12.18
2023-07-03T21:54:12.311Z,8.77
2023-07-03T21:56:43.575Z,7.03
2023-07-03T21:59:13.462Z,10.97
2023-07-03T22:01:44.407Z,10.00
2023-07-03T22:04:13.280Z,5.40
2023-07-03T22:06:42.026Z,11.87
2023-07-03T22:09:10.925Z,8.80
2023-07-03T22:11:40.626Z,7.28
2023-07-03T22:14:09.376Z,9.70
2023-07-03T22:16:38.332Z,6.83
2023-07-03T22:19:09.259Z,7.90
2023-07-03T22:21:37.960Z,12.90
2023-07-03T22:24:07.090Z,11.30
2023-07-03T22:26:35.747Z,8.30
2023-07-03T22:29:04.418Z,9.93
2023-07-03T22:31:33.472Z,12.40
2023-07-03T22:34:02.232Z,8.27
2023-07-03T22:36:32.589Z,8.13
2023-07-03T22:39:01.418Z,13.67
2023-07-03T22:41:30.427Z,11.90
2023-07-03T22:43:59.224Z,6.17
2023-07-03T22:46:27.973Z,12.13
2023-07-03T22:48:56.621Z,7.17
2023-07-03T22:51:25.521Z,13.27
2023-07-03T22:53:55.770Z,9.23
2023-07-03T22:56:24.399Z,8.00
2023-07-03T22:58:53.063Z,10.60
2023-07-03T23:01:21.953Z,9.77
2023-07-03T23:03:50.630Z,11.03
2023-07-03T23:06:19.391Z,7.77
2023-07-03T23:08:48.092Z,8.20
2023-07-03T23:11:18.321Z,14.13
2023-07-03T23:13:47.089Z,11.13
2023-07-03T23:16:15.880Z,10.03
2023-07-03T23:18:44.904Z,12.97
2023-07-03T23:21:15.460Z,11.47
2023-07-03T23:23:44.442Z,6.47
2023-07-03T23:26:16.130Z,7.63
2023-07-03T23:28:47.232Z,7.93
2023-07-03T23:31:17.997Z,6.83
2023-07-03T23:33:49.612Z,12.57
2023-07-03T23:36:23.920Z,8.90
2023-07-03T23:38:53.425Z,6.27
2023-07-03T23:41:22.520Z,8.83
2023-07-03T23:43:53.672Z,9.40
2023-07-03T23:46:23.589Z,10.37
2023-07-03T23:48:52.641Z,10.90
2023-07-03T23:51:22.298Z,7.00
2023-07-03T23:53:51.143Z,8.82
2023-07-03T23:56:21.409Z,11.23
2023-07-03T23:58:52.299Z,11.98
